Time;durP1;ratioP1;P1;durP2;ratioP2;P2;SDS_P1;SDS_P2;PMS_P1;PMS_P2;Temp;Humidity;BMP_temperature;BMP_pressure;BME280_temperature;BME280_humidity;BME280_pressure;Samples;Min_cycle;Max_cycle;Signal;HPM_P1;HPM_P2
2022/11/29 00:01:20;;;;;;;32.98;17.30;;;;;;;2.84;74.34;102196.36;1761386;81;25856;-61
2022/11/29 00:03:47;;;;;;;30.12;17.48;;;;;;;2.87;74.46;102206.89;1765153;79;25871;-62
2022/11/29 00:06:18;;;;;;;31.20;18.17;;;;;;;2.88;74.58;102208.17;1766963;81;27478;-61
2022/11/29 00:08:46;;;;;;;29.92;17.35;;;;;;;2.92;74.84;102208.48;1765834;81;25774;-61
2022/11/29 00:14:05;;;;;;;27.62;17.50;;;;;;;3.03;75.13;102212.11;1755986;81;25796;-62
2022/11/29 00:16:33;;;;;;;28.42;17.02;;;;;;;3.09;75.28;102207.05;1756101;81;26404;-61
2022/11/29 00:19:00;;;;;;;34.15;17.07;;;;;;;3.15;75.26;102196.19;1763692;80;27512;-61
2022/11/29 00:21:27;;;;;;;30.68;18.32;;;;;;;3.18;75.17;102196.56;1787003;80;25683;-61
2022/11/29 00:23:54;;;;;;;33.02;18.10;;;;;;;3.18;75.11;102196.56;1787169;80;25699;-62
2022/11/29 00:26:22;;;;;;;32.55;17.48;;;;;;;3.18;75.26;102192.58;1787166;80;25897;-62
2022/11/29 00:28:49;;;;;;;30.35;18.02;;;;;;;3.21;75.22;102184.47;1787398;80;25445;-62
2022/11/29 00:31:20;;;;;;;31.70;18.45;;;;;;;3.22;75.04;102186.22;1787083;80;27473;-62
2022/11/29 00:33:47;;;;;;;30.00;18.42;;;;;;;3.21;74.89;102196.44;1787353;80;25761;-61
2022/11/29 00:36:15;;;;;;;35.38;20.37;;;;;;;3.19;74.73;102200.50;1786969;80;25781;-61
2022/11/29 00:38:43;;;;;;;32.88;20.25;;;;;;;3.18;74.87;102204.55;1787252;80;25774;-62
2022/11/29 00:41:10;;;;;;;35.33;18.48;;;;;;;3.18;74.83;102197.90;1787617;80;25794;-61
2022/11/29 00:43:38;;;;;;;37.13;19.60;;;;;;;3.13;74.68;102202.05;1779243;80;27453;-61
2022/11/29 00:46:06;;;;;;;34.00;20.62;;;;;;;3.03;74.39;102201.47;1787231;80;25829;-62
2022/11/29 00:48:34;;;;;;;32.67;18.92;;;;;;;2.93;74.38;102208.02;1785254;80;25773;-61
2022/11/29 00:51:03;;;;;;;33.53;19.50;;;;;;;2.81;74.52;102202.20;1787180;80;25813;-61
2022/11/29 00:53:30;;;;;;;31.60;19.80;;;;;;;2.60;74.51;102203.75;1783233;80;25802;-62
2022/11/29 00:55:57;;;;;;;30.52;17.95;;;;;;;2.48;74.68;102195.72;1780531;80;27488;-62
2022/11/29 00:58:25;;;;;;;28.80;19.45;;;;;;;2.47;74.99;102198.44;1779160;80;25730;-61
2022/11/29 01:00:55;;;;;;;34.03;19.57;;;;;;;2.46;75.12;102191.38;1781605;80;25782;-61
2022/11/29 01:03:23;;;;;;;33.92;18.48;;;;;;;2.47;75.37;102194.45;1781570;80;25857;-61
2022/11/29 01:05:50;;;;;;;31.97;18.90;;;;;;;2.52;75.62;102196.95;1787252;80;27356;-61
2022/11/29 01:08:17;;;;;;;29.95;17.80;;;;;;;2.55;75.78;102183.11;1787765;80;27454;-61
2022/11/29 01:10:44;;;;;;;33.28;17.98;;;;;;;2.62;75.90;102183.80;1783036;80;26086;-61
2022/11/29 01:13:11;;;;;;;32.25;17.80;;;;;;;2.66;75.85;102182.75;1778990;80;25723;-61
2022/11/29 01:15:39;;;;;;;30.30;18.02;;;;;;;2.71;76.05;102183.49;1779127;80;25758;-61
2022/11/29 01:18:05;;;;;;;29.00;17.62;;;;;;;2.78;76.22;102181.52;1779003;80;25965;-61
2022/11/29 01:20:32;;;;;;;29.40;17.40;;;;;;;2.81;76.51;102178.73;1778945;80;27466;-61
2022/11/29 01:22:58;;;;;;;30.27;17.80;;;;;;;2.78;76.13;102182.36;1778873;80;25753;-61
2022/11/29 01:25:25;;;;;;;29.80;16.67;;;;;;;2.79;76.14;102179.23;1778920;80;25723;-61
2022/11/29 01:27:53;;;;;;;29.10;16.95;;;;;;;2.80;76.24;102177.88;1779045;80;25694;-62
2022/11/29 01:30:20;;;;;;;26.85;16.73;;;;;;;2.82;76.31;102175.16;1779428;80;25973;-61
2022/11/29 01:32:47;;;;;;;32.83;17.92;;;;;;;2.85;76.40;102175.06;1779069;80;27512;-62
2022/11/29 01:35:13;;;;;;;34.13;17.60;;;;;;;2.86;76.38;102173.27;1779245;80;25991;-61
2022/11/29 01:37:40;;;;;;;31.02;17.55;;;;;;;2.87;76.57;102166.55;1778714;80;25805;-61
2022/11/29 01:40:09;;;;;;;27.27;16.95;;;;;;;2.87;76.34;102163.89;1779128;80;25799;-62
2022/11/29 01:42:35;;;;;;;27.50;16.60;;;;;;;2.86;76.44;102163.52;1781516;80;25445;-62
2022/11/29 01:45:11;;;;;;;28.35;15.45;;;;;;;2.89;76.58;102163.39;1785134;80;29543;-62
2022/11/29 01:47:42;;;;;;;27.95;16.52;;;;;;;2.91;76.46;102163.36;1783782;80;26065;-62
2022/11/29 01:50:10;;;;;;;26.02;17.20;;;;;;;2.91;76.39;102164.69;1779014;80;25742;-62
2022/11/29 01:52:37;;;;;;;28.77;16.85;;;;;;;2.90;76.50;102160.29;1783325;80;26504;-61
2022/11/29 01:55:07;;;;;;;28.92;16.85;;;;;;;2.92;76.74;102163.30;1787316;80;25700;-62
2022/11/29 01:57:36;;;;;;;27.85;16.73;;;;;;;2.90;76.58;102162.95;1760534;80;27594;-62
2022/11/29 02:00:11;;;;;;;27.25;15.88;;;;;;;2.89;76.59;102170.51;1787479;80;25793;-62
2022/11/29 02:02:54;;;;;;;28.25;17.75;;;;;;;2.85;76.53;102173.73;1787128;80;25825;-61
2022/11/29 02:05:22;;;;;;;27.48;16.82;;;;;;;2.82;76.56;102168.52;1787393;80;26975;-62
2022/11/29 02:07:53;;;;;;;28.83;17.50;;;;;;;2.80;76.63;102167.24;1786943;80;25822;-61
2022/11/29 02:10:25;;;;;;;33.58;17.10;;;;;;;2.77;76.72;102167.34;1786948;80;27654;-61
2022/11/29 02:13:18;;;;;;;28.50;17.20;;;;;;;2.71;77.04;102164.00;1777400;80;25738;-62
2022/11/29 02:16:19;;;;;;;31.45;17.82;;;;;;;2.66;76.93;102159.73;1753834;81;25811;-62
2022/11/29 02:19:30;;;;;;;28.98;18.05;;;;;;;2.63;77.33;102164.28;1821459;78;25693;-61
2022/11/29 02:22:17;;;;;;;26.70;16.67;;;;;;;2.59;77.38;102166.17;1822758;78;25693;-61
2022/11/29 02:24:55;;;;;;;29.60;18.27;;;;;;;2.55;77.37;102166.32;1819610;78;27559;-62
2022/11/29 02:27:42;;;;;;;25.82;17.10;;;;;;;2.50;77.44;102159.83;1814915;79;25677;-61
2022/11/29 02:30:19;;;;;;;27.42;17.70;;;;;;;2.44;77.59;102164.88;1815580;79;25741;-61
2022/11/29 02:33:23;;;;;;;29.30;17.32;;;;;;;2.45;77.70;102169.72;1816038;79;25921;-61
2022/11/29 02:36:10;;;;;;;32.93;17.55;;;;;;;2.45;77.84;102164.41;1775111;79;25847;-62
2022/11/29 02:39:19;;;;;;;29.77;17.75;;;;;;;2.52;78.16;102163.75;1814516;78;27441;-62
2022/11/29 02:42:26;;;;;;;29.82;16.55;;;;;;;2.55;78.04;102162.34;1816183;78;25777;-61
2022/11/29 02:45:23;;;;;;;28.47;17.70;;;;;;;2.58;77.97;102155.57;1838987;77;25795;-61
2022/11/29 02:48:33;;;;;;;26.75;17.32;;;;;;;2.63;78.15;102162.95;1853702;77;25853;-61
2022/11/29 02:51:17;;;;;;;26.93;16.95;;;;;;;2.68;78.24;102164.12;1853561;77;25871;-61
2022/11/29 02:54:19;;;;;;;29.60;18.10;;;;;;;2.74;78.15;102166.09;1833305;77;27491;-61
2022/11/29 02:57:25;;;;;;;27.30;17.75;;;;;;;2.72;77.81;102162.65;1807524;79;25911;-61
2022/11/29 03:00:06;;;;;;;27.25;16.70;;;;;;;2.70;77.51;102161.83;1807483;78;25769;-61
2022/11/29 03:02:50;;;;;;;28.55;17.87;;;;;;;2.66;77.09;102161.06;1807659;79;25845;-61
2022/11/29 03:05:39;;;;;;;24.40;15.55;;;;;;;2.58;76.85;102164.43;1844075;77;25590;-61
2022/11/29 03:08:40;;;;;;;28.83;18.15;;;;;;;2.50;76.65;102169.98;1835639;77;28242;-61
2022/11/29 03:11:30;;;;;;;28.12;17.48;;;;;;;2.44;76.93;102166.64;1769117;79;25856;-61
2022/11/29 03:14:27;;;;;;;28.30;18.27;;;;;;;2.40;77.17;102163.22;1820398;77;26474;-61
2022/11/29 03:17:05;;;;;;;28.45;17.45;;;;;;;2.36;77.07;102161.59;1822341;78;25790;-61
2022/11/29 03:20:21;;;;;;;27.22;16.25;;;;;;;2.32;77.00;102162.59;1822370;78;26118;-64
2022/11/29 03:23:08;;;;;;;27.37;17.10;;;;;;;2.32;77.28;102166.58;1822530;78;27498;-61
2022/11/29 03:25:43;;;;;;;29.90;17.25;;;;;;;2.31;77.27;102170.15;1822437;78;25700;-61
2022/11/29 03:28:33;;;;;;;24.72;15.55;;;;;;;2.29;77.32;102169.32;1813862;78;25753;-62
2022/11/29 03:31:14;;;;;;;25.65;17.98;;;;;;;2.33;77.71;102172.30;1827963;77;25849;-61
2022/11/29 03:33:52;;;;;;;24.57;15.40;;;;;;;2.37;77.95;102173.97;1796737;78;25520;-62
2022/11/29 03:36:42;;;;;;;27.67;16.40;;;;;;;2.43;78.27;102178.19;1792331;80;27478;-61
2022/11/29 03:39:15;;;;;;;26.27;16.80;;;;;;;2.48;78.51;102171.81;1793032;79;25472;-62
2022/11/29 03:41:54;;;;;;;25.23;15.08;;;;;;;2.54;78.60;102178.72;1792571;80;25741;-62
2022/11/29 03:44:40;;;;;;;24.47;15.30;;;;;;;2.57;78.43;102181.28;1791199;77;25818;-61
2022/11/29 03:47:16;;;;;;;20.10;13.45;;;;;;;2.57;78.41;102181.73;1789902;79;25735;-61
2022/11/29 03:50:02;;;;;;;22.07;14.55;;;;;;;2.60;78.53;102178.51;1790244;80;46466;-61
2022/11/29 03:52:35;;;;;;;24.18;15.40;;;;;;;2.60;78.42;102187.81;1789445;80;25792;-61
2022/11/29 03:55:34;;;;;;;24.00;15.32;;;;;;;2.61;78.29;102187.36;1826159;78;25745;-61
2022/11/29 03:58:44;;;;;;;30.00;15.70;;;;;;;2.59;78.31;102183.44;1826461;78;25923;-61
2022/11/29 04:01:41;;;;;;;26.20;15.32;;;;;;;2.64;78.56;102188.61;1828301;77;25693;-61
2022/11/29 04:04:42;;;;;;;21.70;14.20;;;;;;;2.64;78.56;102191.27;1828900;78;27531;-62
2022/11/29 04:07:41;;;;;;;22.95;14.75;;;;;;;2.66;78.42;102188.07;1830844;77;26273;-62
2022/11/29 04:10:28;;;;;;;23.45;14.75;;;;;;;2.70;78.61;102192.38;1763674;80;25760;-61
2022/11/29 04:13:21;;;;;;;21.97;14.10;;;;;;;2.74;78.65;102186.03;1819331;78;25736;-60
2022/11/29 04:16:09;;;;;;;25.45;15.95;;;;;;;2.76;78.43;102192.17;1821466;78;25708;-62
2022/11/29 04:18:57;;;;;;;26.73;16.15;;;;;;;2.78;78.40;102196.13;1821804;77;27431;-60
2022/11/29 04:21:49;;;;;;;28.45;17.23;;;;;;;2.76;78.38;102196.63;1821393;78;25768;-61
2022/11/29 04:24:36;;;;;;;27.82;16.75;;;;;;;2.75;78.40;102198.88;1822353;77;25770;-61
2022/11/29 04:27:43;;;;;;;23.85;14.35;;;;;;;2.70;78.21;102201.69;1822655;78;25836;-61
2022/11/29 04:30:23;;;;;;;23.12;16.48;;;;;;;2.66;78.22;102203.58;1796585;78;26117;-61
2022/11/29 04:33:28;;;;;;;25.80;17.52;;;;;;;2.62;78.00;102201.06;1801756;78;27308;-61
2022/11/29 04:36:09;;;;;;;36.15;22.45;;;;;;;2.62;78.00;102201.06;1738383;81;28726;-60
2022/11/29 04:38:59;;;;;;;35.00;21.25;;;;;;;2.58;77.90;102200.30;1794750;78;26008;-61
2022/11/29 04:41:49;;;;;;;27.80;16.85;;;;;;;2.54;77.89;102204.43;1820165;78;25887;-61
2022/11/29 04:44:58;;;;;;;24.98;16.45;;;;;;;2.47;77.74;102205.08;1790230;77;26089;-61
2022/11/29 04:48:00;;;;;;;29.02;17.85;;;;;;;2.39;77.63;102212.41;1803876;78;28438;-61
2022/11/29 04:50:38;;;;;;;29.85;18.87;;;;;;;2.29;77.58;102219.34;1823025;77;25709;-61
2022/11/29 04:53:28;;;;;;;28.62;17.67;;;;;;;2.22;77.60;102218.23;1827000;78;25820;-62
2022/11/29 04:56:25;;;;;;;24.60;16.62;;;;;;;2.19;77.76;102212.13;1791572;77;25775;-61
2022/11/29 04:59:15;;;;;;;24.63;15.53;;;;;;;2.21;77.89;102212.50;1808733;79;25778;-61
2022/11/29 05:02:05;;;;;;;26.65;15.28;;;;;;;2.21;78.13;102213.83;1808304;78;27472;-61
2022/11/29 05:04:54;;;;;;;30.52;17.80;;;;;;;2.23;78.39;102212.89;1793974;78;25824;-61
2022/11/29 05:07:35;;;;;;;49.75;24.82;;;;;;;2.24;78.54;102217.27;1789813;80;25818;-61
2022/11/29 05:10:39;;;;;;;50.60;24.52;;;;;;;2.24;78.42;102223.05;1734425;81;26492;-61
2022/11/29 05:13:40;;;;;;;37.13;20.57;;;;;;;2.26;78.72;102231.37;1769172;80;25733;-60
2022/11/29 05:16:33;;;;;;;29.32;17.73;;;;;;;2.32;78.87;102237.84;1768275;80;28015;-60
2022/11/29 05:19:28;;;;;;;26.48;17.50;;;;;;;2.40;78.91;102235.41;1768183;79;25723;-60
2022/11/29 05:22:24;;;;;;;43.23;25.68;;;;;;;2.46;78.96;102239.19;1771117;80;25774;-60
2022/11/29 05:25:24;;;;;;;45.55;22.17;;;;;;;2.47;78.81;102247.10;1773404;80;26552;-60
2022/11/29 05:28:11;;;;;;;38.58;21.52;;;;;;;2.45;78.85;102244.98;1754156;80;25731;-60
2022/11/29 05:31:09;;;;;;;43.38;22.48;;;;;;;2.47;78.72;102250.23;1767492;81;28253;-60
2022/11/29 05:34:08;;;;;;;33.18;19.80;;;;;;;2.47;78.73;102251.56;1749839;80;26021;-60
2022/11/29 05:37:12;;;;;;;30.48;18.35;;;;;;;2.43;78.51;102250.78;1777122;80;25766;-61
2022/11/29 05:40:25;;;;;;;35.83;21.27;;;;;;;2.37;78.12;102261.61;1771703;80;26854;-61
2022/11/29 05:43:12;;;;;;;34.45;23.42;;;;;;;2.34;78.42;102257.23;1723540;83;26653;-61
2022/11/29 05:45:47;;;;;;;45.12;25.12;;;;;;;2.39;78.89;102262.88;1792729;79;27500;-61
2022/11/29 05:48:28;;;;;;;39.53;23.27;;;;;;;2.39;78.57;102269.52;1768677;80;25735;-60
2022/11/29 05:51:22;;;;;;;36.17;23.22;;;;;;;2.35;78.50;102268.74;1770459;81;25745;-61
2022/11/29 05:54:24;;;;;;;30.90;20.25;;;;;;;2.31;78.48;102265.31;1761037;80;26851;-60
2022/11/29 05:57:25;;;;;;;30.48;18.87;;;;;;;2.30;78.29;102274.20;1761975;80;25762;-61
2022/11/29 05:59:55;;;;;;;25.80;17.05;;;;;;;2.25;78.10;102277.89;1759853;81;27606;-60
2022/11/29 06:02:50;;;;;;;29.80;17.80;;;;;;;2.15;77.85;102275.51;1769875;80;25864;-61
2022/11/29 06:05:31;;;;;;;25.88;16.77;;;;;;;2.11;77.85;102274.31;1770970;80;26489;-60
2022/11/29 06:08:24;;;;;;;34.60;20.27;;;;;;;2.08;77.92;102281.91;1758128;80;25877;-60
2022/11/29 06:11:04;;;;;;;35.17;20.48;;;;;;;2.07;78.08;102274.86;1756579;80;26059;-61
2022/11/29 06:13:43;;;;;;;32.73;20.23;;;;;;;2.06;78.24;102275.77;1720934;83;27462;-60
2022/11/29 06:16:50;;;;;;;35.05;20.40;;;;;;;2.06;78.23;102277.57;1753997;81;25842;-60
2022/11/29 06:19:41;;;;;;;26.93;16.85;;;;;;;2.03;78.20;102276.73;1731728;80;25696;-61
2022/11/29 06:22:28;;;;;;;24.55;16.85;;;;;;;2.10;78.75;102277.44;1756204;80;25813;-61
2022/11/29 06:25:36;;;;;;;25.55;16.82;;;;;;;2.15;78.85;102275.51;1768179;80;26107;-61
2022/11/29 06:28:39;;;;;;;21.45;15.05;;;;;;;2.24;79.04;102280.13;1734471;80;27474;-61
2022/11/29 06:31:26;;;;;;;27.48;18.10;;;;;;;2.32;79.26;102282.11;1762411;80;25726;-62
2022/11/29 06:34:10;;;;;;;22.87;15.15;;;;;;;2.40;79.50;102285.40;1743104;80;25811;-61
2022/11/29 06:36:45;;;;;;;22.65;15.15;;;;;;;2.49;79.58;102282.47;1754224;80;25799;-61
2022/11/29 06:39:14;;;;;;;23.42;15.25;;;;;;;2.57;79.60;102284.91;1754490;81;27285;-61
2022/11/29 06:41:40;;;;;;;27.62;15.20;;;;;;;2.65;79.37;102282.88;1765343;79;27452;-61
2022/11/29 06:44:10;;;;;;;24.20;15.48;;;;;;;2.73;79.43;102283.09;1759730;79;25689;-61
2022/11/29 06:46:48;;;;;;;20.23;13.58;;;;;;;2.77;79.22;102282.09;1745978;80;25803;-61
2022/11/29 06:49:28;;;;;;;21.68;14.75;;;;;;;2.81;79.19;102282.38;1762550;80;26490;-62
2022/11/29 06:52:21;;;;;;;23.50;14.50;;;;;;;2.81;78.64;102279.28;1750534;80;25788;-62
2022/11/29 06:54:56;;;;;;;52.75;24.60;;;;;;;2.77;78.62;102284.27;1774126;80;29581;-61
2022/11/29 06:57:52;;;;;;;39.38;21.23;;;;;;;2.73;78.05;102285.30;1763816;80;25707;-61
2022/11/29 07:00:25;;;;;;;37.30;21.15;;;;;;;2.50;77.52;102286.86;1751274;80;25966;-61
2022/11/29 07:03:31;;;;;;;31.05;18.70;;;;;;;2.47;78.11;102283.44;1773178;80;25858;-61
2022/11/29 07:06:06;;;;;;;27.75;16.23;;;;;;;2.47;78.31;102286.95;1744534;82;25746;-61
2022/11/29 07:08:34;;;;;;;28.92;19.02;;;;;;;2.48;78.39;102274.55;1751563;80;27636;-61
2022/11/29 07:11:02;;;;;;;27.75;18.10;;;;;;;2.46;78.28;102277.70;1762586;80;26681;-61
2022/11/29 07:13:31;;;;;;;24.98;17.07;;;;;;;2.49;78.29;102282.94;1761768;80;25847;-61
2022/11/29 07:16:21;;;;;;;21.25;14.38;;;;;;;2.50;78.36;102279.38;1760194;80;25962;-61
2022/11/29 07:19:20;;;;;;;21.48;15.23;;;;;;;2.49;78.14;102285.13;1744529;80;25851;-61
2022/11/29 07:22:01;;;;;;;21.73;14.40;;;;;;;2.53;78.13;102279.73;1745131;82;27471;-60
2022/11/29 07:24:48;;;;;;;19.80;13.93;;;;;;;2.57;78.22;102280.91;1766930;80;25879;-60
2022/11/29 07:27:41;;;;;;;22.35;15.28;;;;;;;2.60;78.32;102282.13;1765774;80;25759;-61
2022/11/29 07:30:16;;;;;;;19.95;13.15;;;;;;;2.68;78.60;102279.72;1753767;80;25810;-61
2022/11/29 07:32:54;;;;;;;20.80;14.23;;;;;;;2.76;78.72;102281.20;1761976;80;25728;-61
2022/11/29 07:35:32;;;;;;;25.17;15.95;;;;;;;2.81;78.77;102281.94;1763196;80;27507;-61
2022/11/29 07:38:37;;;;;;;22.05;13.25;;;;;;;2.88;78.73;102284.39;1781757;79;25834;-61
2022/11/29 07:41:26;;;;;;;19.42;14.15;;;;;;;2.93;78.74;102279.34;1781512;80;25724;-61
2022/11/29 07:43:58;;;;;;;20.62;13.55;;;;;;;2.98;78.54;102276.54;1782572;79;25982;-61
2022/11/29 07:46:27;;;;;;;18.52;13.50;;;;;;;3.00;78.40;102284.45;1765552;80;27256;-61
2022/11/29 07:48:54;;;;;;;19.73;13.08;;;;;;;3.02;78.58;102283.95;1758379;80;27463;-61
2022/11/29 07:51:21;;;;;;;18.67;12.40;;;;;;;3.01;78.47;102285.72;1789096;79;25992;-61
2022/11/29 07:53:49;;;;;;;19.67;12.73;;;;;;;3.04;78.58;102284.30;1805893;79;25702;-61
2022/11/29 07:56:15;;;;;;;17.50;12.23;;;;;;;3.05;78.60;102289.19;1793878;79;25793;-61
2022/11/29 07:58:42;;;;;;;15.15;11.08;;;;;;;3.04;78.41;102284.30;1788630;80;25772;-61
2022/11/29 08:01:09;;;;;;;20.05;12.47;;;;;;;3.06;78.42;102278.48;1787904;79;27620;-61
2022/11/29 08:03:36;;;;;;;21.82;13.35;;;;;;;3.07;78.36;102283.33;1786839;80;25825;-61
2022/11/29 08:06:04;;;;;;;16.80;12.85;;;;;;;3.08;78.27;102280.64;1804780;79;25657;-61
2022/11/29 08:08:30;;;;;;;20.43;12.28;;;;;;;3.10;78.59;102285.42;1794774;79;25784;-61
2022/11/29 08:10:57;;;;;;;19.50;12.47;;;;;;;3.18;78.57;102289.17;1788138;80;25737;-61
2022/11/29 08:13:24;;;;;;;18.62;13.62;;;;;;;3.19;78.55;102292.24;1787897;80;27449;-61
2022/11/29 08:15:51;;;;;;;18.37;12.63;;;;;;;3.24;78.59;102294.75;1785314;80;25836;-61
2022/11/29 08:18:18;;;;;;;18.32;13.72;;;;;;;3.26;78.56;102291.59;1789285;78;25674;-61
2022/11/29 08:20:45;;;;;;;18.50;12.30;;;;;;;3.26;78.41;102293.77;1766644;80;25864;-61
2022/11/29 08:23:13;;;;;;;19.62;14.70;;;;;;;3.26;78.41;102288.45;1750768;80;25811;-61
2022/11/29 08:25:40;;;;;;;20.82;14.35;;;;;;;3.29;78.31;102292.35;1766412;80;27458;-61
2022/11/29 08:28:07;;;;;;;17.60;12.20;;;;;;;3.30;78.06;102291.88;1762861;80;25901;-61
2022/11/29 08:30:34;;;;;;;18.73;12.98;;;;;;;3.28;77.91;102288.39;1775257;79;25531;-61
2022/11/29 08:33:01;;;;;;;19.55;12.23;;;;;;;3.28;78.13;102291.94;1771810;80;25799;-61
2022/11/29 08:35:29;;;;;;;18.67;13.45;;;;;;;3.28;77.96;102293.27;1766474;79;25775;-61
2022/11/29 08:37:55;;;;;;;19.25;12.73;;;;;;;3.28;77.97;102294.59;1765746;80;27438;-61
2022/11/29 08:40:23;;;;;;;21.73;12.03;;;;;;;3.28;78.10;102290.61;1766159;80;25845;-61
2022/11/29 08:42:49;;;;;;;24.30;16.07;;;;;;;3.28;77.87;102289.28;1763748;79;25734;-61
2022/11/29 08:45:17;;;;;;;21.75;12.70;;;;;;;3.26;77.76;102279.62;1767921;80;25811;-61
2022/11/29 08:47:43;;;;;;;20.27;13.30;;;;;;;3.23;77.72;102275.25;1761467;81;25890;-61
2022/11/29 08:50:15;;;;;;;20.20;13.93;;;;;;;3.23;77.70;102275.25;1769384;80;27418;-61
2022/11/29 08:55:39;;;;;;;27.27;16.73;;;;;;;3.10;77.72;102280.11;1769464;80;25743;-61
2022/11/29 08:58:10;;;;;;;30.15;19.15;;;;;;;3.11;77.94;102271.69;1762409;80;25786;-61
2022/11/29 09:00:38;;;;;;;26.85;17.27;;;;;;;3.13;78.12;102277.36;1765304;80;26482;-62
2022/11/29 09:05:52;;;;;;;24.37;16.75;;;;;;;3.15;78.30;102272.45;1770050;79;25696;-62
2022/11/29 09:08:20;;;;;;;24.77;16.45;;;;;;;3.19;78.18;102266.98;1769724;80;25782;-62
2022/11/29 09:10:47;;;;;;;36.75;21.77;;;;;;;3.19;77.80;102259.44;1766259;80;26511;-61
2022/11/29 09:13:14;;;;;;;26.07;15.95;;;;;;;3.17;78.03;102260.83;1761603;80;25958;-62
2022/11/29 09:15:42;;;;;;;31.93;18.30;;;;;;;3.20;78.13;102254.09;1763130;80;27481;-61
2022/11/29 09:18:10;;;;;;;32.05;18.90;;;;;;;3.25;78.41;102257.92;1763307;80;25876;-61
2022/11/29 09:20:37;;;;;;;25.05;16.82;;;;;;;3.29;78.25;102263.09;1748249;80;25836;-61
2022/11/29 09:23:04;;;;;;;23.15;13.43;;;;;;;3.40;78.62;102258.73;1764975;80;26469;-61
2022/11/29 09:25:31;;;;;;;19.25;11.88;;;;;;;3.52;78.73;102260.56;1772329;80;25948;-61
2022/11/29 09:28:01;;;;;;;14.70;11.15;;;;;;;3.56;78.16;102260.84;1765525;80;27487;-61
2022/11/29 09:30:30;;;;;;;15.08;10.63;;;;;;;3.51;77.44;102261.48;1771181;79;25765;-61
2022/11/29 09:33:03;;;;;;;16.87;11.55;;;;;;;3.47;77.09;102270.03;1750727;80;25835;-62
2022/11/29 09:35:31;;;;;;;15.05;11.30;;;;;;;3.52;77.71;102258.75;1764920;80;25760;-61
2022/11/29 09:37:59;;;;;;;17.90;10.05;;;;;;;3.64;78.04;102261.44;1756990;80;25755;-61
2022/11/29 09:40:40;;;;;;;14.63;11.22;;;;;;;3.70;77.56;102266.56;1756716;79;28279;-62
2022/11/29 09:43:40;;;;;;;19.73;13.72;;;;;;;3.73;77.82;102251.79;1766013;81;25783;-62
2022/11/29 09:46:47;;;;;;;28.62;19.73;;;;;;;3.83;77.75;102251.02;1763621;80;25721;-62
2022/11/29 09:49:38;;;;;;;22.48;14.60;;;;;;;3.95;77.99;102241.70;1744845;80;26751;-62
2022/11/29 09:52:16;;;;;;;19.35;12.65;;;;;;;4.00;77.53;102245.53;1770788;80;25778;-61
2022/11/29 09:55:16;;;;;;;22.70;15.00;;;;;;;4.05;77.51;102251.53;1774693;79;27487;-61
2022/11/29 09:57:44;;;;;;;19.32;12.58;;;;;;;4.05;77.13;102252.42;1759028;79;26034;-61
2022/11/29 10:00:20;;;;;;;21.77;13.20;;;;;;;4.11;76.87;102246.45;1768880;79;25450;-61
2022/11/29 10:02:58;;;;;;;26.40;15.68;;;;;;;4.12;76.97;102245.08;1751903;80;25938;-61
2022/11/29 10:05:32;;;;;;;22.05;14.73;;;;;;;4.11;77.01;102245.11;1763550;80;25715;-61
2022/11/29 10:08:31;;;;;;;23.65;15.45;;;;;;;4.07;76.67;102246.58;1764370;80;27548;-60
2022/11/29 10:11:12;;;;;;;25.23;15.32;;;;;;;4.03;76.63;102241.43;1756494;80;25746;-61
2022/11/29 10:13:44;;;;;;;25.88;14.45;;;;;;;4.03;76.84;102240.95;1767970;80;25707;-61
2022/11/29 10:16:25;;;;;;;25.25;15.05;;;;;;;4.04;76.79;102245.80;1767574;80;25809;-62
2022/11/29 10:19:06;;;;;;;22.07;14.25;;;;;;;4.03;76.92;102236.95;1760619;80;25884;-61
2022/11/29 10:21:38;;;;;;;25.35;14.47;;;;;;;3.99;76.98;102233.98;1765524;80;28600;-61
2022/11/29 10:24:16;;;;;;;27.02;15.05;;;;;;;4.00;77.05;102236.20;1755752;81;25881;-61
2022/11/29 10:26:43;;;;;;;21.48;14.23;;;;;;;4.02;77.28;102231.70;1756520;80;26053;-61
2022/11/29 10:29:15;;;;;;;22.50;13.28;;;;;;;4.11;77.41;102229.13;1745279;80;25826;-61
2022/11/29 10:31:48;;;;;;;24.05;13.20;;;;;;;4.20;77.50;102224.34;1772121;80;25766;-61
2022/11/29 10:34:19;;;;;;;21.57;13.08;;;;;;;4.26;77.51;102224.55;1757290;80;27465;-61
2022/11/29 10:37:01;;;;;;;21.25;14.25;;;;;;;4.27;77.16;102225.43;1766197;80;25794;-61
2022/11/29 10:39:59;;;;;;;36.30;14.47;;;;;;;4.28;77.09;102223.17;1753190;80;25743;-62
2022/11/29 10:45:39;;;;;;;27.02;14.53;;;;;;;4.38;77.32;102226.73;1758834;80;25497;-61
2022/11/29 10:48:14;;;;;;;18.67;11.93;;;;;;;4.33;76.75;102223.41;1720013;80;27490;-62
2022/11/29 10:50:44;;;;;;;18.02;10.72;;;;;;;4.32;77.07;102220.78;1760150;80;25711;-61
2022/11/29 10:53:15;;;;;;;23.07;11.65;;;;;;;4.31;77.06;102223.03;1774259;80;25715;-61
2022/11/29 10:55:55;;;;;;;18.70;11.73;;;;;;;4.36;77.55;102216.60;1761633;80;25783;-61
2022/11/29 10:58:29;;;;;;;19.98;11.73;;;;;;;4.47;77.81;102214.87;1761874;80;25864;-61
2022/11/29 11:01:06;;;;;;;17.15;11.05;;;;;;;4.53;77.70;102217.28;1767073;80;28209;-61
2022/11/29 11:03:44;;;;;;;17.48;11.15;;;;;;;4.56;77.37;102214.95;1769919;80;25427;-61
2022/11/29 11:06:20;;;;;;;17.42;10.63;;;;;;;4.56;77.47;102222.94;1732493;80;25884;-61
2022/11/29 11:08:52;;;;;;;15.08;9.88;;;;;;;4.59;77.43;102217.50;1771143;80;26466;-61
2022/11/29 11:11:30;;;;;;;14.85;9.48;;;;;;;4.60;77.12;102218.36;1761341;80;25810;-61
2022/11/29 11:14:22;;;;;;;13.75;9.60;;;;;;;4.62;77.31;102208.02;1757408;80;27441;-61
2022/11/29 11:16:50;;;;;;;14.87;10.03;;;;;;;4.62;76.96;102212.02;1777764;79;25739;-61
2022/11/29 11:19:30;;;;;;;18.75;9.10;;;;;;;4.62;77.08;102213.84;1776524;78;25810;-61
2022/11/29 11:22:15;;;;;;;15.53;9.08;;;;;;;4.62;77.28;102212.02;1759118;80;25493;-62
2022/11/29 11:24:44;;;;;;;25.88;11.22;;;;;;;4.70;77.75;102212.61;1736568;80;26054;-60
2022/11/29 11:27:11;;;;;;;20.70;10.60;;;;;;;4.72;77.24;102216.98;1766846;81;27478;-62
2022/11/29 11:29:41;;;;;;;12.65;9.08;;;;;;;4.70;77.13;102219.27;1767279;80;25683;-62
2022/11/29 11:32:18;;;;;;;13.48;9.20;;;;;;;4.82;77.28;102220.56;1764447;80;25817;-62
2022/11/29 11:34:58;;;;;;;13.30;9.48;;;;;;;4.90;77.39;102220.23;1773992;79;26768;-60
2022/11/29 11:37:29;;;;;;;12.95;8.98;;;;;;;4.92;76.83;102225.04;1778551;80;25623;-62
2022/11/29 11:40:00;;;;;;;13.05;8.15;;;;;;;4.89;76.54;102214.97;1767076;80;27463;-60
2022/11/29 11:42:37;;;;;;;12.53;7.47;;;;;;;4.90;76.17;102215.38;1774066;80;25727;-61
2022/11/29 11:45:15;;;;;;;14.07;7.47;;;;;;;4.87;76.16;102213.71;1775468;80;25701;-61
2022/11/29 11:47:53;;;;;;;11.60;6.37;;;;;;;4.84;76.04;102217.83;1766483;79;25830;-61
2022/11/29 11:50:45;;;;;;;9.35;6.67;;;;;;;4.80;76.21;102217.53;1766663;80;25722;-61
2022/11/29 11:53:39;;;;;;;11.28;6.90;;;;;;;4.70;75.77;102212.61;1764342;79;27493;-61
2022/11/29 11:56:09;;;;;;;18.40;8.40;;;;;;;4.63;75.81;102217.77;1749523;80;25775;-61
2022/11/29 11:58:44;;;;;;;9.73;6.90;;;;;;;4.54;76.08;102204.36;1731035;82;25739;-61
2022/11/29 12:01:19;;;;;;;9.28;6.90;;;;;;;4.48;76.09;102207.25;1749998;80;26488;-61
2022/11/29 12:04:22;;;;;;;11.15;7.40;;;;;;;4.39;76.04;102208.50;1765959;80;25972;-61
2022/11/29 12:07:03;;;;;;;11.48;7.42;;;;;;;4.35;76.26;102204.20;1766514;80;27675;-61
2022/11/29 12:09:48;;;;;;;10.90;6.90;;;;;;;4.36;76.58;102212.60;1764500;80;26035;-61
2022/11/29 12:12:36;;;;;;;11.35;7.47;;;;;;;4.37;76.88;102217.01;1755345;79;25763;-61
2022/11/29 12:15:08;;;;;;;14.07;7.58;;;;;;;4.39;76.85;102216.49;1750543;80;26472;-61
2022/11/29 12:17:40;;;;;;;11.97;6.92;;;;;;;4.39;77.22;102217.82;1779681;80;26486;-62
2022/11/29 12:20:38;;;;;;;12.47;6.60;;;;;;;4.47;77.32;102216.64;1785903;80;27473;-61
2022/11/29 12:23:19;;;;;;;14.28;6.62;;;;;;;4.52;77.56;102221.34;1756475;80;25801;-61
2022/11/29 12:25:54;;;;;;;9.85;6.10;;;;;;;4.62;77.87;102217.83;1782927;79;25865;-61
2022/11/29 12:28:32;;;;;;;13.48;6.75;;;;;;;4.70;77.96;102209.95;1781734;80;25962;-62